createdAt,value
2018-08-18T00:01:52.904Z,2.60
2018-08-18T00:05:56.091Z,3.13
2018-08-18T00:09:59.053Z,3.13
2018-08-18T00:14:01.879Z,2.60
2018-08-18T00:18:04.650Z,2.70
2018-08-18T00:22:07.375Z,2.43
2018-08-18T00:26:10.156Z,2.73
2018-08-18T00:30:18.720Z,2.80
2018-08-18T00:34:21.497Z,2.60
2018-08-18T00:38:24.285Z,2.90
2018-08-18T00:42:27.056Z,3.40
2018-08-18T00:46:31.212Z,3.00
2018-08-18T00:50:43.202Z,2.97
2018-08-18T00:54:46.025Z,3.63
2018-08-18T00:58:50.931Z,3.50
2018-08-18T01:02:53.971Z,2.47
2018-08-18T01:06:56.944Z,3.13
2018-08-18T01:10:59.842Z,2.70
2018-08-18T01:15:02.749Z,2.33
2018-08-18T01:19:05.519Z,2.53
2018-08-18T01:23:08.324Z,2.77
2018-08-18T01:27:11.163Z,2.40
2018-08-18T01:31:19.677Z,2.83
2018-08-18T01:35:22.384Z,2.53
2018-08-18T01:39:25.100Z,2.60
2018-08-18T01:43:27.697Z,2.83
2018-08-18T01:47:30.389Z,2.67
2018-08-18T01:51:33.073Z,2.50
2018-08-18T01:55:35.769Z,2.30
2018-08-18T01:59:40.701Z,3.33
2018-08-18T02:03:43.348Z,3.20
2018-08-18T02:07:46.126Z,2.30
2018-08-18T02:11:52.633Z,2.93
2018-08-18T02:15:55.527Z,3.03
2018-08-18T02:19:58.684Z,3.20
2018-08-18T02:24:02.592Z,2.73
2018-08-18T02:28:06.475Z,4.17
2018-08-18T02:32:26.710Z,4.00
2018-08-18T02:36:29.495Z,4.87
2018-08-18T02:40:32.234Z,4.20
2018-08-18T02:44:35.001Z,3.90
2018-08-18T02:48:37.743Z,3.87
2018-08-18T02:52:40.559Z,4.97
2018-08-18T02:56:43.863Z,5.03
2018-08-18T03:00:46.561Z,5.93
2018-08-18T03:04:49.253Z,5.10
2018-08-18T03:08:52.014Z,3.70
2018-08-18T03:12:58.350Z,4.37
2018-08-18T03:17:01.305Z,5.03
2018-08-18T03:21:04.174Z,5.10
2018-08-18T03:25:07.015Z,4.97
2018-08-18T03:29:10.287Z,5.20
2018-08-18T03:33:12.998Z,4.93
2018-08-18T03:37:25.625Z,4.80
2018-08-18T03:41:29.064Z,4.77
2018-08-18T03:45:31.745Z,5.03
2018-08-18T03:49:34.436Z,6.13
2018-08-18T03:53:37.082Z,5.50
2018-08-18T03:57:46.408Z,6.20
2018-08-18T04:01:52.283Z,5.53
2018-08-18T04:05:55.022Z,4.80
2018-08-18T04:10:02.387Z,5.90
2018-08-18T04:14:05.055Z,5.60
2018-08-18T04:18:12.065Z,6.27
2018-08-18T04:22:15.096Z,6.53
2018-08-18T04:26:17.724Z,6.83
2018-08-18T04:30:21.349Z,6.70
2018-08-18T04:34:23.988Z,7.17
2018-08-18T04:38:26.694Z,6.40
2018-08-18T04:42:29.350Z,5.23
2018-08-18T04:46:32.019Z,5.33
2018-08-18T04:50:34.745Z,6.37
2018-08-18T04:54:37.311Z,6.17
2018-08-18T04:58:40.188Z,6.70
2018-08-18T05:02:59.161Z,6.57
2018-08-18T05:07:01.905Z,7.47
2018-08-18T05:11:04.865Z,7.47
2018-08-18T05:15:07.759Z,7.30
2018-08-18T05:19:10.614Z,7.90
2018-08-18T05:23:20.836Z,8.10
2018-08-18T05:27:23.554Z,7.90
2018-08-18T05:31:26.251Z,8.57
2018-08-18T05:35:29.001Z,7.93
2018-08-18T05:39:31.728Z,8.30
2018-08-18T05:43:34.465Z,9.37
2018-08-18T05:47:37.258Z,8.77
2018-08-18T05:51:43.771Z,8.20
2018-08-18T05:55:47.530Z,8.00
2018-08-18T05:59:50.406Z,8.40
2018-08-18T06:04:03.760Z,8.70
2018-08-18T06:08:06.626Z,8.47
2018-08-18T06:12:14.930Z,9.77
2018-08-18T06:16:17.595Z,9.07
2018-08-18T06:20:20.376Z,8.37
2018-08-18T06:24:23.008Z,8.80
2018-08-18T06:28:25.890Z,8.87
2018-08-18T06:32:29.304Z,8.07
2018-08-18T06:36:31.913Z,8.47
2018-08-18T06:40:35.160Z,8.33
2018-08-18T06:44:38.150Z,8.63
2018-08-18T06:48:41.296Z,8.77
2018-08-18T06:52:45.380Z,8.20
2018-08-18T06:56:48.199Z,8.10
2018-08-18T07:00:50.823Z,8.50
2018-08-18T07:04:53.439Z,8.50
2018-08-18T07:08:56.069Z,6.33
2018-08-18T07:13:01.625Z,7.73
2018-08-18T07:17:04.347Z,8.13
2018-08-18T07:21:07.022Z,7.53
2018-08-18T07:25:09.783Z,5.67
2018-08-18T07:29:12.742Z,6.50
2018-08-18T07:33:17.084Z,6.40
2018-08-18T07:37:19.823Z,5.80
2018-08-18T07:41:22.473Z,5.00
2018-08-18T07:45:25.338Z,4.23
2018-08-18T07:49:27.974Z,4.20
2018-08-18T07:53:30.622Z,3.47
2018-08-18T07:57:35.622Z,4.00
2018-08-18T08:01:38.267Z,3.40
2018-08-18T08:05:41.189Z,3.60
2018-08-18T08:09:45.085Z,4.40
2018-08-18T08:13:48.204Z,3.63
2018-08-18T08:17:51.259Z,2.80
2018-08-18T08:21:53.929Z,3.30
2018-08-18T08:25:56.723Z,3.10
2018-08-18T08:29:59.310Z,3.17
2018-08-18T08:34:02.017Z,3.10
2018-08-18T08:38:04.708Z,2.80
2018-08-18T08:42:07.415Z,3.57
2018-08-18T08:46:10.055Z,2.77
2018-08-18T08:50:14.199Z,3.10
2018-08-18T08:54:17.956Z,3.27
2018-08-18T08:58:20.703Z,2.07
2018-08-18T09:02:23.487Z,2.50
2018-08-18T09:06:26.225Z,2.60
2018-08-18T09:10:29.166Z,3.20
2018-08-18T09:14:31.870Z,3.23
2018-08-18T09:18:36.874Z,3.07
2018-08-18T09:23:01.388Z,3.13
2018-08-18T09:27:05.264Z,2.97
2018-08-18T09:31:07.921Z,2.10
2018-08-18T09:35:10.557Z,3.27
2018-08-18T09:39:23.689Z,3.50
2018-08-18T09:43:26.676Z,5.93
2018-08-18T09:47:29.425Z,3.47
2018-08-18T09:51:32.123Z,3.03
2018-08-18T09:55:34.901Z,4.93
2018-08-18T09:59:37.716Z,10.07
2018-08-18T10:03:40.396Z,4.00
2018-08-18T10:07:43.160Z,4.83
2018-08-18T10:11:45.826Z,3.30
2018-08-18T10:15:48.397Z,3.83
2018-08-18T10:19:51.061Z,3.97
2018-08-18T10:23:53.727Z,3.90
2018-08-18T10:27:56.449Z,4.50
2018-08-18T10:31:59.679Z,4.73
2018-08-18T10:36:02.741Z,4.53
2018-08-18T10:40:09.602Z,5.57
2018-08-18T10:44:13.827Z,5.03
2018-08-18T10:48:16.454Z,5.30
2018-08-18T10:52:32.279Z,3.07
2018-08-18T10:56:34.963Z,3.10
2018-08-18T11:00:37.789Z,4.63
2018-08-18T11:04:40.432Z,4.40
2018-08-18T11:08:43.345Z,4.60
2018-08-18T11:12:45.988Z,5.77
2018-08-18T11:16:49.569Z,4.00
2018-08-18T11:20:52.228Z,3.80
2018-08-18T11:24:54.865Z,3.77
2018-08-18T11:29:08.921Z,4.63
2018-08-18T11:33:18.293Z,4.00
2018-08-18T11:37:20.898Z,3.90
2018-08-18T11:41:23.706Z,3.80
2018-08-18T11:45:27.516Z,4.10
2018-08-18T11:49:30.730Z,3.87
2018-08-18T11:53:33.609Z,3.27
2018-08-18T11:57:36.470Z,3.03
2018-08-18T12:01:40.283Z,3.60
2018-08-18T12:06:01.793Z,3.67
2018-08-18T12:10:04.651Z,3.53
2018-08-18T12:14:07.307Z,3.00
2018-08-18T12:18:09.996Z,2.70
2018-08-18T12:22:12.693Z,2.67
2018-08-18T12:26:18.578Z,2.40
2018-08-18T12:30:29.180Z,2.73
2018-08-18T12:34:32.054Z,2.70
2018-08-18T12:38:35.032Z,2.67
2018-08-18T12:42:37.943Z,2.40
2018-08-18T12:46:46.212Z,2.90
2018-08-18T12:50:48.931Z,2.37
2018-08-18T12:54:51.794Z,2.23
2018-08-18T12:58:54.643Z,2.27
2018-08-18T13:02:57.245Z,2.70
2018-08-18T13:06:59.852Z,1.97
2018-08-18T13:11:02.583Z,2.20
2018-08-18T13:15:05.376Z,2.37
2018-08-18T13:19:08.038Z,2.93
2018-08-18T13:23:11.305Z,2.40
2018-08-18T13:27:14.318Z,2.40
2018-08-18T13:31:17.139Z,2.70
2018-08-18T13:35:19.915Z,2.80
2018-08-18T13:39:22.599Z,2.40
2018-08-18T13:43:41.356Z,2.23
2018-08-18T13:47:44.148Z,2.40
2018-08-18T13:51:46.989Z,2.30
2018-08-18T13:55:49.951Z,2.20
2018-08-18T13:59:52.682Z,2.23
2018-08-18T14:03:55.313Z,2.20
2018-08-18T14:08:00.226Z,2.37
2018-08-18T14:12:08.770Z,2.27
2018-08-18T14:16:12.055Z,2.23
2018-08-18T14:20:14.737Z,2.20
2018-08-18T14:24:21.015Z,2.07
2018-08-18T14:28:23.778Z,5.07
2018-08-18T14:32:28.140Z,2.20
2018-08-18T14:36:30.842Z,2.57
2018-08-18T14:40:33.555Z,1.93
2018-08-18T14:44:37.066Z,1.80
2018-08-18T14:48:39.764Z,2.33
2018-08-18T14:52:43.929Z,2.63
2018-08-18T14:56:46.594Z,1.83
2018-08-18T15:00:50.377Z,1.70
2018-08-18T15:04:53.178Z,2.20
2018-08-18T15:08:56.073Z,2.20
2018-08-18T15:12:59.685Z,2.60
2018-08-18T15:17:02.473Z,2.27
2018-08-18T15:21:05.493Z,2.30
2018-08-18T15:25:08.315Z,2.73
2018-08-18T15:29:15.623Z,2.20
2018-08-18T15:33:20.335Z,2.00
2018-08-18T15:37:22.992Z,2.07
2018-08-18T15:41:25.667Z,1.90
2018-08-18T15:45:29.037Z,1.83
2018-08-18T15:49:31.692Z,1.90
2018-08-18T15:53:54.107Z,1.90
2018-08-18T15:57:56.847Z,2.83
2018-08-18T16:01:59.502Z,1.70
2018-08-18T16:06:02.206Z,1.77
2018-08-18T16:10:04.841Z,2.10
2018-08-18T16:14:07.740Z,1.80
2018-08-18T16:18:10.329Z,1.70
2018-08-18T16:22:12.989Z,1.93
2018-08-18T16:26:15.607Z,1.77
2018-08-18T16:30:18.959Z,2.40
2018-08-18T16:34:21.557Z,2.57
2018-08-18T16:38:35.168Z,3.10
2018-08-18T16:42:37.882Z,2.70
2018-08-18T16:46:41.483Z,2.20
2018-08-18T16:50:44.370Z,2.47
2018-08-18T16:54:47.026Z,2.90
2018-08-18T16:58:51.083Z,3.17
2018-08-18T17:02:53.772Z,3.53
2018-08-18T17:06:56.581Z,5.43
2018-08-18T17:10:59.316Z,4.57
2018-08-18T17:15:02.565Z,4.17
2018-08-18T17:19:05.217Z,3.80
2018-08-18T17:23:07.800Z,3.87
2018-08-18T17:27:10.499Z,4.27
2018-08-18T17:31:13.289Z,4.83
2018-08-18T17:35:15.930Z,5.70
2018-08-18T17:39:18.634Z,4.60
2018-08-18T17:43:21.395Z,4.63
2018-08-18T17:47:24.072Z,5.40
2018-08-18T17:51:27.125Z,6.63
2018-08-18T17:55:29.746Z,5.37
2018-08-18T17:59:33.247Z,5.30
2018-08-18T18:03:35.848Z,5.63
2018-08-18T18:07:38.456Z,5.80
2018-08-18T18:11:41.062Z,6.30
2018-08-18T18:15:44.833Z,5.60
2018-08-18T18:19:47.637Z,5.93
2018-08-18T18:23:50.287Z,5.27
2018-08-18T18:27:52.954Z,5.73
2018-08-18T18:31:56.313Z,5.97
2018-08-18T18:35:59.245Z,5.60
2018-08-18T18:40:04.329Z,6.07
2018-08-18T18:44:07.053Z,6.00
2018-08-18T18:48:12.657Z,5.43
2018-08-18T18:52:16.990Z,5.60
2018-08-18T18:56:19.894Z,5.70
2018-08-18T19:00:22.579Z,6.43
2018-08-18T19:04:25.264Z,6.07
2018-08-18T19:08:27.993Z,5.73
2018-08-18T19:12:30.730Z,6.53
2018-08-18T19:16:33.371Z,5.23
2018-08-18T19:20:36.009Z,6.20
2018-08-18T19:24:38.675Z,5.77
2018-08-18T19:28:41.770Z,5.80
2018-08-18T19:32:44.477Z,6.47
2018-08-18T19:36:57.132Z,6.07
2018-08-18T19:40:59.760Z,6.53
2018-08-18T19:45:02.554Z,6.10
2018-08-18T19:49:05.272Z,6.97
2018-08-18T19:53:11.057Z,6.73
2018-08-18T19:57:17.349Z,7.60
2018-08-18T20:01:20.134Z,7.03
2018-08-18T20:05:23.035Z,7.37
2018-08-18T20:09:25.649Z,7.83
2018-08-18T20:13:29.829Z,8.53
2018-08-18T20:17:32.456Z,6.97
2018-08-18T20:21:35.849Z,7.13
2018-08-18T20:25:38.755Z,7.13
2018-08-18T20:29:41.789Z,7.50
2018-08-18T20:33:45.649Z,7.07
2018-08-18T20:37:48.287Z,6.80
2018-08-18T20:41:51.106Z,8.17
2018-08-18T20:45:53.891Z,6.80
2018-08-18T20:49:57.225Z,7.87
2018-08-18T20:54:00.713Z,9.33
2018-08-18T20:58:03.444Z,7.17
2018-08-18T21:02:06.592Z,7.20
2018-08-18T21:06:09.260Z,7.43
2018-08-18T21:10:12.581Z,8.37
2018-08-18T21:14:15.216Z,6.37
2018-08-18T21:18:19.277Z,8.03
2018-08-18T21:22:25.367Z,8.63
2018-08-18T21:26:28.276Z,8.50
2018-08-18T21:30:30.844Z,8.40
2018-08-18T21:34:43.708Z,8.13
2018-08-18T21:38:46.500Z,8.73
2018-08-18T21:42:49.165Z,7.90
2018-08-18T21:46:51.911Z,7.90
2018-08-18T21:50:54.521Z,9.50
2018-08-18T21:54:58.290Z,9.43
2018-08-18T21:59:01.050Z,8.73
2018-08-18T22:03:03.829Z,10.53
2018-08-18T22:07:06.482Z,10.77
2018-08-18T22:11:13.521Z,10.80
2018-08-18T22:15:19.719Z,10.10
2018-08-18T22:19:22.519Z,10.40
2018-08-18T22:23:25.778Z,10.03
2018-08-18T22:27:28.485Z,11.03
2018-08-18T22:31:31.972Z,10.47
2018-08-18T22:35:37.575Z,10.60
2018-08-18T22:39:40.421Z,12.00
2018-08-18T22:43:43.138Z,12.00
2018-08-18T22:47:45.788Z,12.60
2018-08-18T22:51:48.453Z,12.20
2018-08-18T22:55:51.051Z,11.67
2018-08-18T22:59:53.792Z,13.63
2018-08-18T23:03:56.387Z,13.63
2018-08-18T23:07:58.982Z,12.67
2018-08-18T23:12:03.415Z,13.43
2018-08-18T23:16:06.001Z,13.30
2018-08-18T23:20:08.615Z,13.83
2018-08-18T23:24:24.466Z,15.07
2018-08-18T23:28:27.054Z,16.00
2018-08-18T23:32:36.342Z,16.13
2018-08-18T23:36:38.876Z,16.13
2018-08-18T23:40:41.475Z,16.53
2018-08-18T23:44:44.101Z,14.50
2018-08-18T23:48:46.702Z,14.97
2018-08-18T23:52:58.915Z,17.33
2018-08-18T23:57:01.491Z,17.23
